S73 Hermelin — DRCG — position and weather

sailwx.info

Track history (hours):
 
Tides and Currents Weather Stations Pressure Air Temp Water Temp Dewpoint Dewpoint Depression Visibility Wind Speed Wind Dir Waves Ship Positions

S73 Hermelin

Last reported at 2015-Aug-26 16:33 UTC. Time now 2015-Sep-04 03:54 UTC.
Position N 54°11' E 012°05'.
Warning: this ship's position is 8 days out of date.

Length 58 m.

Type: Military. MMSI: 211210610.

Date/timePositionNaut miles runAvg speedWind from/ knotsBaromVisibWave heightAir tempDewpointWater temp
2015-Aug-26 16:33N 54°11' E 012°05'2020.3
2015-Aug-26 15:33N 54°24' E 011°38'4133.6
2015-Aug-26 14:20N 54°33' E 010°29'2228.0
2015-Aug-26 13:32N 54°28' E 009°52'0 0.0
2015-Aug-25 17:25N 54°28' E 009°52'5 5.5
2015-Aug-25 16:34N 54°30' E 009°59'3424.5
2015-Aug-25 15:11N 54°36' E 010°57'1727.1
2015-Aug-25 14:34N 54°32' E 011°25'2322.9
2015-Aug-25 13:33N 54°18' E 011°56'10 8.6
2015-Aug-25 12:23N 54°11' E 012°08'0 0.0
2015-Aug-25 11:26N 54°11' E 012°08'0 0.0
2015-Aug-25 10:14N 54°11' E 012°08'0 0.0
2015-Aug-25 09:29N 54°11' E 012°08'  
Track history (hours):
 
Tides and Currents Weather Stations Pressure Air Temp Water Temp Dewpoint Dewpoint Depression Visibility Wind Speed Wind Dir Waves Ship Positions

S73 Hermelin

Last reported at 2015-Aug-26 16:33 UTC. Time now 2015-Sep-04 03:54 UTC.
Position N 54°11' E 012°05'.
Warning: this ship's position is 8 days out of date.

Length 58 m.

Type: Military. MMSI: 211210610.

Date/timePositionNaut miles runAvg speedWind from/ knotsBaromVisibWave heightAir tempDewpointWater temp
2015-Aug-26 16:33N 54°11' E 012°05'2020.3
2015-Aug-26 15:33N 54°24' E 011°38'4133.6
2015-Aug-26 14:20N 54°33' E 010°29'2228.0
2015-Aug-26 13:32N 54°28' E 009°52'0 0.0
2015-Aug-25 17:25N 54°28' E 009°52'5 5.5
2015-Aug-25 16:34N 54°30' E 009°59'3424.5
2015-Aug-25 15:11N 54°36' E 010°57'1727.1
2015-Aug-25 14:34N 54°32' E 011°25'2322.9
2015-Aug-25 13:33N 54°18' E 011°56'10 8.6
2015-Aug-25 12:23N 54°11' E 012°08'0 0.0
2015-Aug-25 11:26N 54°11' E 012°08'0 0.0
2015-Aug-25 10:14N 54°11' E 012°08'0 0.0
2015-Aug-25 09:29N 54°11' E 012°08'  

Dump ship's entire track history